Summary for RAINWISE1

Rainwise Factory, Bar Harbor, ME 04609
Join the PWSweather.com Network
View data in metric units
Latest Conditions
Updated 11:35:00 PM EDT Thursday, Jul 24, 2014
Data Currently Today's Max Today's Min Today's Average
Temperature 57.0°F13.9°C 71.3°F21.8°C 57.0°F13.9°C 64.6°F18.1°C
Dew Point 57.0°F13.9°C 71.3°F21.8°C 57.0°F13.9°C 63.9°F17.7°C
Winds Calm Calm 7.3 mph N11.7 kmh N CalmCalm 2.4 mph3.9 kmh
Wind Gusts -- 13.5 mph21.7 kmh -- 4.6 mph7.4 kmh
Humidity 100% 100% 88% 98%
Pressure 29.95 in1014.2 mb 29.95 in1014.2 mb 29.80 in1009.1 mb 29.88 in1011.9 mb
Precipitation 0.65 in16.5 mm - - 0.00 in0.0 mm
Trends
 
Station Profile
Rainwise FactoryBar Harbor, ME 04609

Lat: 44.39, Lon: -68.208
Elevation: 29
Station Type: Rainwise MK-III

Detailed Summary for Thu, Jul 24, 2014
Hour (EDT) Temperature Dew Point Humidity Winds Wind Gusts Pressure Precip Precip Rate Daily Precip Total
11:35 PM 57.0°F13.9°C 57.0°F13.9°C 100% Calm Calm -- 29.95 in1014.2 mb 0.00 in0.0 mm 0.00 in/hr0.0 mm/hr 0.65 in16.5 mm
11:30 PM 57.2°F14.0°C 57.2°F14.0°C 100% Calm Calm -- 29.94 in1013.9 mb 0.00 in0.0 mm 0.00 in/hr0.0 mm/hr 0.65 in16.5 mm
11:25 PM 57.1°F13.9°C 57.1°F13.9°C 100% Calm Calm -- 29.94 in1013.9 mb 0.00 in0.0 mm 0.00 in/hr0.0 mm/hr 0.65 in16.5 mm
11:20 PM 57.1°F13.9°C 57.1°F13.9°C 100% Calm Calm -- 29.94 in1013.9 mb 0.00 in0.0 mm 0.00 in/hr0.0 mm/hr 0.65 in16.5 mm
11:15 PM 57.2°F14.0°C 57.2°F14.0°C 100% 0.2 mph SW0.3 kmh SW 2.1 mph3.4 kmh 29.93 in1013.5 mb 0.00 in0.0 mm 0.00 in/hr0.0 mm/hr 0.65 in16.5 mm
11:10 PM 57.6°F14.2°C 57.6°F14.2°C 100% Calm Calm -- 29.94 in1013.9 mb 0.00 in0.0 mm 0.00 in/hr0.0 mm/hr 0.65 in16.5 mm
11:05 PM 58.1°F14.5°C 58.1°F14.5°C 100% Calm Calm -- 29.94 in1013.9 mb 0.00 in0.0 mm 0.00 in/hr0.0 mm/hr 0.65 in16.5 mm
11:00 PM 58.5°F14.7°C 58.5°F14.7°C 100% Calm Calm -- 29.93 in1013.5 mb 0.00 in0.0 mm 0.00 in/hr0.0 mm/hr 0.65 in16.5 mm
10:55 PM 58.6°F14.8°C 58.6°F14.8°C 100% Calm Calm -- 29.93 in1013.5 mb 0.00 in0.0 mm 0.00 in/hr0.0 mm/hr 0.65 in16.5 mm
10:50 PM 58.3°F14.6°C 58.3°F14.6°C 100% 0.3 mph SW0.5 kmh SW 2.1 mph3.4 kmh 29.94 in1013.9 mb 0.00 in0.0 mm 0.00 in/hr0.0 mm/hr 0.65 in16.5 mm
10:45 PM 58.1°F14.5°C 58.1°F14.5°C 100% 0.2 mph SW0.3 kmh SW 1.6 mph2.6 kmh 29.94 in1013.9 mb 0.00 in0.0 mm 0.00 in/hr0.0 mm/hr 0.65 in16.5 mm
10:40 PM 58.2°F14.6°C 58.2°F14.6°C 100% 0.2 mph SSW0.3 kmh SSW 1.8 mph2.9 kmh 29.94 in1013.9 mb 0.00 in0.0 mm 0.00 in/hr0.0 mm/hr 0.65 in16.5 mm
10:35 PM 58.4°F14.7°C 58.4°F14.7°C 100% Calm Calm -- 29.94 in1013.9 mb 0.00 in0.0 mm 0.00 in/hr0.0 mm/hr 0.65 in16.5 mm
10:30 PM 58.7°F14.8°C 58.7°F14.8°C 100% Calm Calm -- 29.94 in1013.9 mb 0.00 in0.0 mm 0.00 in/hr0.0 mm/hr 0.65 in16.5 mm
10:25 PM 58.7°F14.8°C 58.7°F14.8°C 100% Calm Calm -- 29.94 in1013.9 mb 0.00 in0.0 mm 0.00 in/hr0.0 mm/hr 0.65 in16.5 mm
10:20 PM 58.6°F14.8°C 58.2°F14.6°C 99% 0.5 mph SSW0.8 kmh SSW 1.8 mph2.9 kmh 29.93 in1013.5 mb 0.00 in0.0 mm 0.00 in/hr0.0 mm/hr 0.65 in16.5 mm
10:15 PM 58.5°F14.7°C 58.2°F14.6°C 99% 1.3 mph SSW2.1 kmh SSW 2.2 mph3.5 kmh 29.93 in1013.5 mb 0.00 in0.0 mm 0.00 in/hr0.0 mm/hr 0.65 in16.5 mm
10:10 PM 58.8°F14.9°C 58.4°F14.7°C 99% Calm Calm -- 29.93 in1013.5 mb 0.00 in0.0 mm 0.00 in/hr0.0 mm/hr 0.65 in16.5 mm
10:05 PM 59.2°F15.1°C 58.5°F14.7°C 98% Calm Calm -- 29.93 in1013.5 mb 0.00 in0.0 mm 0.00 in/hr0.0 mm/hr 0.65 in16.5 mm
10:00 PM 59.6°F15.3°C 58.9°F14.9°C 98% Calm Calm -- 29.93 in1013.5 mb 0.00 in0.0 mm 0.00 in/hr0.0 mm/hr 0.65 in16.5 mm
09:55 PM 59.9°F15.5°C 59.2°F15.1°C 98% Calm Calm -- 29.93 in1013.5 mb 0.00 in0.0 mm 0.00 in/hr0.0 mm/hr 0.65 in16.5 mm
09:50 PM 60.2°F15.7°C 59.1°F15.1°C 97% Calm Calm -- 29.93 in1013.5 mb 0.00 in0.0 mm 0.00 in/hr0.0 mm/hr 0.65 in16.5 mm
09:45 PM 60.5°F15.8°C 59.4°F15.2°C 97% Calm Calm -- 29.93 in1013.5 mb 0.00 in0.0 mm 0.00 in/hr0.0 mm/hr 0.65 in16.5 mm
09:40 PM 60.7°F15.9°C 59.6°F15.3°C 97% 0.4 mph SSW0.6 kmh SSW 1.3 mph2.1 kmh 29.93 in1013.5 mb 0.00 in0.0 mm 0.00 in/hr0.0 mm/hr 0.65 in16.5 mm
09:35 PM 60.8°F16.0°C 59.7°F15.4°C 97% 0.7 mph SSW1.1 kmh SSW 1.6 mph2.6 kmh 29.93 in1013.5 mb 0.00 in0.0 mm 0.00 in/hr0.0 mm/hr 0.65 in16.5 mm
09:30 PM 60.9°F16.1°C 59.8°F15.4°C 97% 0.6 mph SSW1.0 kmh SSW 1.8 mph2.9 kmh 29.93 in1013.5 mb 0.00 in0.0 mm 0.00 in/hr0.0 mm/hr 0.65 in16.5 mm
09:25 PM 60.9°F16.1°C 59.8°F15.4°C 97% 0.0 mph SSW0.0 kmh SSW 1.1 mph1.8 kmh 29.93 in1013.5 mb 0.00 in0.0 mm 0.00 in/hr0.0 mm/hr 0.65 in16.5 mm
09:20 PM 61.0°F16.1°C 59.9°F15.5°C 97% 0.4 mph SSW0.6 kmh SSW 1.6 mph2.6 kmh 29.92 in1013.2 mb 0.00 in0.0 mm 0.00 in/hr0.0 mm/hr 0.65 in16.5 mm
09:15 PM 61.1°F16.2°C 59.6°F15.3°C 96% 0.9 mph SSW1.4 kmh SSW 1.6 mph2.6 kmh 29.92 in1013.2 mb 0.00 in0.0 mm 0.00 in/hr0.0 mm/hr 0.65 in16.5 mm
09:10 PM 61.1°F16.2°C 59.7°F15.4°C 96% Calm Calm -- 29.92 in1013.2 mb 0.00 in0.0 mm 0.00 in/hr0.0 mm/hr 0.65 in16.5 mm
09:05 PM 61.2°F16.2°C 59.8°F15.4°C 96% Calm Calm 1.1 mph1.8 kmh 29.92 in1013.2 mb 0.00 in0.0 mm 0.00 in/hr0.0 mm/hr 0.65 in16.5 mm
09:00 PM 61.5°F16.4°C 59.7°F15.4°C 95% Calm Calm -- 29.92 in1013.2 mb 0.00 in0.0 mm 0.00 in/hr0.0 mm/hr 0.65 in16.5 mm
08:55 PM 61.7°F16.5°C 59.9°F15.5°C 95% Calm Calm -- 29.92 in1013.2 mb 0.00 in0.0 mm 0.00 in/hr0.0 mm/hr 0.65 in16.5 mm
08:50 PM 61.8°F16.6°C 60.0°F15.6°C 95% Calm Calm -- 29.91 in1012.9 mb 0.00 in0.0 mm 0.00 in/hr0.0 mm/hr 0.65 in16.5 mm
08:45 PM 62.0°F16.7°C 59.8°F15.4°C 94% 0.6 mph SSW1.0 kmh SSW 2.2 mph3.5 kmh 29.91 in1012.9 mb 0.00 in0.0 mm 0.00 in/hr0.0 mm/hr 0.65 in16.5 mm
08:40 PM 62.2°F16.8°C 59.7°F15.4°C 93% 1.9 mph SSW3.1 kmh SSW 2.2 mph3.5 kmh 29.91 in1012.9 mb 0.00 in0.0 mm 0.00 in/hr0.0 mm/hr 0.65 in16.5 mm
08:35 PM 62.8°F17.1°C 60.2°F15.7°C 93% 0.1 mph SSE0.2 kmh SSE 1.8 mph2.9 kmh 29.91 in1012.9 mb 0.00 in0.0 mm 0.00 in/hr0.0 mm/hr 0.65 in16.5 mm
08:30 PM 63.3°F17.4°C 60.4°F15.8°C 92% Calm Calm -- 29.90 in1012.5 mb 0.00 in0.0 mm 0.00 in/hr0.0 mm/hr 0.65 in16.5 mm
08:25 PM 63.6°F17.6°C 60.4°F15.8°C 91% 0.6 mph SSE1.0 kmh SSE 2.1 mph3.4 kmh 29.90 in1012.5 mb 0.00 in0.0 mm 0.00 in/hr0.0 mm/hr 0.65 in16.5 mm
08:20 PM 64.0°F17.8°C 60.7°F15.9°C 91% 0.3 mph SSW0.5 kmh SSW 1.8 mph2.9 kmh 29.90 in1012.5 mb 0.00 in0.0 mm 0.00 in/hr0.0 mm/hr 0.65 in16.5 mm
08:15 PM 64.3°F17.9°C 61.0°F16.1°C 91% 1.0 mph SSW1.6 kmh SSW 2.7 mph4.3 kmh 29.91 in1012.9 mb 0.00 in0.0 mm 0.00 in/hr0.0 mm/hr 0.65 in16.5 mm
08:10 PM 64.5°F18.1°C 61.3°F16.3°C 91% 1.4 mph SSW2.3 kmh SSW 2.6 mph4.2 kmh 29.91 in1012.9 mb 0.00 in0.0 mm 0.00 in/hr0.0 mm/hr 0.65 in16.5 mm
08:05 PM 64.9°F18.3°C 61.7°F16.5°C 91% 2.0 mph SSW3.2 kmh SSW 3.2 mph5.1 kmh 29.91 in1012.9 mb 0.00 in0.0 mm 0.00 in/hr0.0 mm/hr 0.65 in16.5 mm
08:00 PM 65.4°F18.6°C 62.1°F16.7°C 91% 2.2 mph SSW3.5 kmh SSW 4.0 mph6.4 kmh 29.90 in1012.5 mb 0.00 in0.0 mm 0.00 in/hr0.0 mm/hr 0.65 in16.5 mm
07:55 PM 65.9°F18.8°C 62.6°F17.0°C 91% 0.7 mph SW1.1 kmh SW 2.7 mph4.3 kmh 29.90 in1012.5 mb 0.00 in0.0 mm 0.00 in/hr0.0 mm/hr 0.65 in16.5 mm
07:50 PM 66.4°F19.1°C 63.1°F17.3°C 91% 2.4 mph SSW3.9 kmh SSW 4.2 mph6.8 kmh 29.90 in1012.5 mb 0.00 in0.0 mm 0.00 in/hr0.0 mm/hr 0.65 in16.5 mm
07:45 PM 66.7°F19.3°C 63.4°F17.4°C 91% 2.6 mph SW4.2 kmh SW 4.4 mph7.1 kmh 29.90 in1012.5 mb 0.00 in0.0 mm 0.00 in/hr0.0 mm/hr 0.65 in16.5 mm
07:40 PM 67.4°F19.7°C 64.1°F17.8°C 91% 3.7 mph SSW6.0 kmh SSW 5.5 mph8.9 kmh 29.90 in1012.5 mb 0.00 in0.0 mm 0.00 in/hr0.0 mm/hr 0.65 in16.5 mm
07:35 PM 68.2°F20.1°C 65.3°F18.5°C 92% 3.8 mph SSW6.1 kmh SSW 6.2 mph10.0 kmh 29.90 in1012.5 mb 0.00 in0.0 mm 0.00 in/hr0.0 mm/hr 0.65 in16.5 mm
07:30 PM 68.7°F20.4°C 65.8°F18.8°C 92% 1.9 mph S3.1 kmh S 3.2 mph5.1 kmh 29.89 in1012.2 mb 0.00 in0.0 mm 0.00 in/hr0.0 mm/hr 0.65 in16.5 mm
07:25 PM 69.3°F20.7°C 66.7°F19.3°C 93% 1.6 mph SSE2.6 kmh SSE 3.0 mph4.8 kmh 29.90 in1012.5 mb 0.00 in0.0 mm 0.00 in/hr0.0 mm/hr 0.65 in16.5 mm
07:20 PM 69.8°F21.0°C 67.2°F19.6°C 93% 2.5 mph SSW4.0 kmh SSW 4.0 mph6.4 kmh 29.90 in1012.5 mb 0.00 in0.0 mm 0.00 in/hr0.0 mm/hr 0.65 in16.5 mm
07:15 PM 70.1°F21.2°C 67.2°F19.6°C 92% 1.5 mph SW2.4 kmh SW 4.4 mph7.1 kmh 29.89 in1012.2 mb 0.00 in0.0 mm 0.00 in/hr0.0 mm/hr 0.65 in16.5 mm
07:10 PM 70.4°F21.3°C 67.1°F19.5°C 91% 0.9 mph SW1.4 kmh SW 3.0 mph4.8 kmh 29.89 in1012.2 mb 0.00 in0.0 mm 0.00 in/hr0.0 mm/hr 0.65 in16.5 mm
07:05 PM 70.2°F21.2°C 67.0°F19.4°C 91% 2.2 mph WSW3.5 kmh WSW 4.4 mph7.1 kmh 29.89 in1012.2 mb 0.00 in0.0 mm 0.00 in/hr0.0 mm/hr 0.65 in16.5 mm
07:00 PM 70.4°F21.3°C 67.1°F19.5°C 91% 2.4 mph SW3.9 kmh SW 5.0 mph8.0 kmh 29.89 in1012.2 mb 0.00 in0.0 mm 0.00 in/hr0.0 mm/hr 0.65 in16.5 mm
06:55 PM 70.9°F21.6°C 68.0°F20.0°C 92% 3.7 mph WSW6.0 kmh WSW 5.5 mph8.9 kmh 29.89 in1012.2 mb 0.00 in0.0 mm 0.00 in/hr0.0 mm/hr 0.65 in16.5 mm
06:50 PM 70.8°F21.6°C 67.9°F19.9°C 92% 3.6 mph SW5.8 kmh SW 7.0 mph11.3 kmh 29.89 in1012.2 mb 0.00 in0.0 mm 0.00 in/hr0.0 mm/hr 0.65 in16.5 mm
06:45 PM 70.5°F21.4°C 67.6°F19.8°C 92% 1.4 mph SW2.3 kmh SW 4.7 mph7.6 kmh 29.89 in1012.2 mb 0.00 in0.0 mm 0.00 in/hr0.0 mm/hr 0.65 in16.5 mm
06:40 PM 70.7°F21.5°C 68.2°F20.1°C 93% 2.9 mph SSW4.7 kmh SSW 5.5 mph8.9 kmh 29.89 in1012.2 mb 0.00 in0.0 mm 0.00 in/hr0.0 mm/hr 0.65 in16.5 mm
06:35 PM 70.6°F21.4°C 67.4°F19.7°C 91% 2.2 mph SSW3.5 kmh SSW 3.7 mph6.0 kmh 29.88 in1011.9 mb 0.00 in0.0 mm 0.00 in/hr0.0 mm/hr 0.65 in16.5 mm
06:30 PM 70.1°F21.2°C 66.5°F19.2°C 90% 0.5 mph SSW0.8 kmh SSW 2.6 mph4.2 kmh 29.89 in1012.2 mb 0.00 in0.0 mm 0.00 in/hr0.0 mm/hr 0.65 in16.5 mm
06:25 PM 69.8°F21.0°C 66.6°F19.2°C 91% 2.8 mph S4.5 kmh S 4.2 mph6.8 kmh 29.89 in1012.2 mb 0.00 in0.0 mm 0.00 in/hr0.0 mm/hr 0.65 in16.5 mm
06:20 PM 69.9°F21.1°C 67.0°F19.4°C 92% 2.8 mph SSW4.5 kmh SSW 4.2 mph6.8 kmh 29.89 in1012.2 mb 0.00 in0.0 mm 0.00 in/hr0.0 mm/hr 0.65 in16.5 mm
06:15 PM 70.2°F21.2°C 67.3°F19.6°C 92% 2.5 mph SSW4.0 kmh SSW 3.2 mph5.1 kmh 29.88 in1011.9 mb 0.00 in0.0 mm 0.00 in/hr0.0 mm/hr 0.65 in16.5 mm
06:10 PM 70.3°F21.3°C 66.7°F19.3°C 90% 1.7 mph S2.7 kmh S 2.7 mph4.3 kmh 29.88 in1011.9 mb 0.00 in0.0 mm 0.00 in/hr0.0 mm/hr 0.65 in16.5 mm
06:05 PM 70.1°F21.2°C 66.2°F19.0°C 89% 1.3 mph SSE2.1 kmh SSE 3.2 mph5.1 kmh 29.88 in1011.9 mb 0.00 in0.0 mm 0.00 in/hr0.0 mm/hr 0.65 in16.5 mm
06:00 PM 70.0°F21.1°C 66.0°F18.9°C 89% 2.4 mph S3.9 kmh S 4.0 mph6.4 kmh 29.88 in1011.9 mb 0.00 in0.0 mm 0.00 in/hr0.0 mm/hr 0.65 in16.5 mm
05:55 PM 70.0°F21.1°C 66.4°F19.1°C 90% 3.2 mph S5.1 kmh S 4.4 mph7.1 kmh 29.88 in1011.9 mb 0.00 in0.0 mm 0.00 in/hr0.0 mm/hr 0.65 in16.5 mm
05:50 PM 70.0°F21.1°C 66.8°F19.3°C 91% 2.7 mph SSW4.3 kmh SSW 3.7 mph6.0 kmh 29.88 in1011.9 mb 0.00 in0.0 mm 0.00 in/hr0.0 mm/hr 0.65 in16.5 mm
05:45 PM 70.0°F21.1°C 66.8°F19.3°C 91% 2.7 mph SSW4.3 kmh SSW 4.0 mph6.4 kmh 29.88 in1011.9 mb 0.00 in0.0 mm 0.00 in/hr0.0 mm/hr 0.65 in16.5 mm
05:40 PM 70.0°F21.1°C 66.0°F18.9°C 89% 2.7 mph SSW4.3 kmh SSW 4.7 mph7.6 kmh 29.88 in1011.9 mb 0.00 in0.0 mm 0.00 in/hr0.0 mm/hr 0.65 in16.5 mm
05:35 PM 69.9°F21.1°C 65.6°F18.7°C 88% 1.9 mph SSE3.1 kmh SSE 4.0 mph6.4 kmh 29.88 in1011.9 mb 0.00 in0.0 mm 0.00 in/hr0.0 mm/hr 0.65 in16.5 mm
05:30 PM 69.9°F21.1°C 65.9°F18.8°C 89% 2.8 mph SSE4.5 kmh SSE 4.4 mph7.1 kmh 29.88 in1011.9 mb 0.00 in0.0 mm 0.00 in/hr0.0 mm/hr 0.65 in16.5 mm
05:25 PM 69.9°F21.1°C 66.3°F19.1°C 90% 3.3 mph S5.3 kmh S 4.7 mph7.6 kmh 29.88 in1011.9 mb 0.00 in0.0 mm 0.00 in/hr0.0 mm/hr 0.65 in16.5 mm
05:20 PM 69.6°F20.9°C 66.0°F18.9°C 90% 3.1 mph SSW5.0 kmh SSW 5.4 mph8.7 kmh 29.88 in1011.9 mb 0.00 in0.0 mm 0.00 in/hr0.0 mm/hr 0.65 in16.5 mm
05:15 PM 69.4°F20.8°C 65.8°F18.8°C 90% 3.0 mph S4.8 kmh S 4.9 mph7.9 kmh 29.88 in1011.9 mb 0.00 in0.0 mm 0.00 in/hr0.0 mm/hr 0.65 in16.5 mm
05:10 PM 69.4°F20.8°C 66.1°F18.9°C 91% 2.9 mph SSE4.7 kmh SSE 5.4 mph8.7 kmh 29.88 in1011.9 mb 0.00 in0.0 mm 0.00 in/hr0.0 mm/hr 0.65 in16.5 mm
05:05 PM 69.4°F20.8°C 66.1°F18.9°C 91% 2.7 mph S4.3 kmh S 4.2 mph6.8 kmh 29.88 in1011.9 mb 0.00 in0.0 mm 0.00 in/hr0.0 mm/hr 0.65 in16.5 mm
05:00 PM 69.2°F20.7°C 65.6°F18.7°C 90% 2.4 mph SSE3.9 kmh SSE 4.0 mph6.4 kmh 29.88 in1011.9 mb 0.00 in0.0 mm 0.00 in/hr0.0 mm/hr 0.65 in16.5 mm
04:55 PM 69.3°F20.7°C 65.7°F18.7°C 90% 2.6 mph SSE4.2 kmh SSE 4.0 mph6.4 kmh 29.88 in1011.9 mb 0.00 in0.0 mm 0.00 in/hr0.0 mm/hr 0.65 in16.5 mm
04:50 PM 69.3°F20.7°C 66.1°F18.9°C 91% 2.4 mph SSE3.9 kmh SSE 4.2 mph6.8 kmh 29.88 in1011.9 mb 0.00 in0.0 mm 0.00 in/hr0.0 mm/hr 0.65 in16.5 mm
04:45 PM 69.1°F20.6°C 66.6°F19.2°C 93% 3.5 mph S5.6 kmh S 6.2 mph10.0 kmh 29.88 in1011.9 mb 0.00 in0.0 mm 0.00 in/hr0.0 mm/hr 0.65 in16.5 mm
04:40 PM 68.9°F20.5°C 67.1°F19.5°C 95% 2.9 mph S4.7 kmh S 4.7 mph7.6 kmh 29.88 in1011.9 mb 0.00 in0.0 mm 0.00 in/hr0.0 mm/hr 0.65 in16.5 mm
04:35 PM 69.0°F20.6°C 67.6°F19.8°C 96% 3.6 mph SSW5.8 kmh SSW 5.5 mph8.9 kmh 29.88 in1011.9 mb 0.00 in0.0 mm 0.00 in/hr0.0 mm/hr 0.65 in16.5 mm
04:30 PM 68.8°F20.4°C 67.0°F19.4°C 95% 2.5 mph SSW4.0 kmh SSW 4.9 mph7.9 kmh 29.88 in1011.9 mb 0.00 in0.0 mm 0.00 in/hr0.0 mm/hr 0.65 in16.5 mm
04:25 PM 68.2°F20.1°C 66.4°F19.1°C 95% 1.8 mph SSE2.9 kmh SSE 4.2 mph6.8 kmh 29.88 in1011.9 mb 0.00 in0.0 mm 0.00 in/hr0.0 mm/hr 0.65 in16.5 mm
04:20 PM 68.0°F20.0°C 66.2°F19.0°C 95% 3.0 mph SSW4.8 kmh SSW 4.4 mph7.1 kmh 29.89 in1012.2 mb 0.00 in0.0 mm 0.00 in/hr0.0 mm/hr 0.65 in16.5 mm
04:15 PM 67.8°F19.9°C 66.0°F18.9°C 95% 2.7 mph SSE4.3 kmh SSE 4.7 mph7.6 kmh 29.89 in1012.2 mb 0.00 in0.0 mm 0.00 in/hr0.0 mm/hr 0.65 in16.5 mm
04:10 PM 67.5°F19.7°C 65.7°F18.7°C 95% 3.6 mph SSE5.8 kmh SSE 6.2 mph10.0 kmh 29.88 in1011.9 mb 0.00 in0.0 mm 0.00 in/hr0.0 mm/hr 0.65 in16.5 mm
04:05 PM 67.8°F19.9°C 66.7°F19.3°C 97% 6.2 mph SSW10.0 kmh SSW 8.1 mph13.0 kmh 29.89 in1012.2 mb 0.00 in0.0 mm 0.00 in/hr0.0 mm/hr 0.65 in16.5 mm
04:00 PM 68.0°F20.0°C 67.3°F19.6°C 98% 5.7 mph SSW9.2 kmh SSW 7.5 mph12.1 kmh 29.89 in1012.2 mb 0.00 in0.0 mm 0.00 in/hr0.0 mm/hr 0.65 in16.5 mm
03:55 PM 68.0°F20.0°C 67.6°F19.8°C 99% 5.0 mph SSW8.0 kmh SSW 7.9 mph12.7 kmh 29.88 in1011.9 mb 0.00 in0.0 mm 0.00 in/hr0.0 mm/hr 0.65 in16.5 mm
03:50 PM 67.9°F19.9°C 67.5°F19.7°C 99% 5.5 mph S8.9 kmh S 9.5 mph15.3 kmh 29.88 in1011.9 mb 0.00 in0.0 mm 0.00 in/hr0.0 mm/hr 0.65 in16.5 mm
03:45 PM 67.8°F19.9°C 67.8°F19.9°C 100% 6.6 mph SSW10.6 kmh SSW 9.0 mph14.5 kmh 29.89 in1012.2 mb 0.00 in0.0 mm 0.00 in/hr0.0 mm/hr 0.65 in16.5 mm
03:40 PM 68.0°F20.0°C 68.0°F20.0°C 100% 6.6 mph SSW10.6 kmh SSW 8.9 mph14.3 kmh 29.89 in1012.2 mb 0.00 in0.0 mm 0.00 in/hr0.0 mm/hr 0.65 in16.5 mm
03:35 PM 68.2°F20.1°C 68.2°F20.1°C 100% 5.2 mph S8.4 kmh S 7.9 mph12.7 kmh 29.89 in1012.2 mb 0.00 in0.0 mm 0.00 in/hr0.0 mm/hr 0.65 in16.5 mm
03:30 PM 68.2°F20.1°C 68.2°F20.1°C 100% 5.3 mph SSW8.5 kmh SSW 7.7 mph12.4 kmh 29.89 in1012.2 mb 0.00 in0.0 mm 0.00 in/hr0.0 mm/hr 0.65 in16.5 mm
03:25 PM 68.3°F20.2°C 68.3°F20.2°C 100% 5.3 mph SSW8.5 kmh SSW 7.5 mph12.1 kmh 29.89 in1012.2 mb 0.00 in0.0 mm 0.00 in/hr0.0 mm/hr 0.65 in16.5 mm
03:20 PM 68.0°F20.0°C 68.0°F20.0°C 100% 4.9 mph SSW7.9 kmh SSW 7.2 mph11.6 kmh 29.89 in1012.2 mb 0.00 in0.0 mm 0.00 in/hr0.0 mm/hr 0.65 in16.5 mm
03:15 PM 67.5°F19.7°C 67.5°F19.7°C 100% 4.9 mph SSW7.9 kmh SSW 7.7 mph12.4 kmh 29.90 in1012.5 mb 0.00 in0.0 mm 0.00 in/hr0.0 mm/hr 0.65 in16.5 mm
03:10 PM 67.5°F19.7°C 67.5°F19.7°C 100% 5.3 mph SSW8.5 kmh SSW 7.9 mph12.7 kmh 29.89 in1012.2 mb 0.00 in0.0 mm 0.00 in/hr0.0 mm/hr 0.65 in16.5 mm
03:05 PM 68.2°F20.1°C 68.2°F20.1°C 100% 6.3 mph SSW10.1 kmh SSW 8.4 mph13.5 kmh 29.89 in1012.2 mb 0.00 in0.0 mm 0.00 in/hr0.0 mm/hr 0.65 in16.5 mm
03:00 PM 70.1°F21.2°C 70.1°F21.2°C 100% 5.5 mph SSW8.9 kmh SSW 7.9 mph12.7 kmh 29.90 in1012.5 mb 0.00 in0.0 mm 0.00 in/hr0.0 mm/hr 0.65 in16.5 mm
02:55 PM 71.0°F21.7°C 71.0°F21.7°C 100% 3.7 mph S6.0 kmh S 7.5 mph12.1 kmh 29.89 in1012.2 mb 0.00 in0.0 mm 0.00 in/hr0.0 mm/hr 0.65 in16.5 mm
02:50 PM 71.0°F21.7°C 71.0°F21.7°C 100% 2.0 mph NW3.2 kmh NW 4.4 mph7.1 kmh 29.90 in1012.5 mb 0.00 in0.0 mm 0.00 in/hr0.0 mm/hr 0.65 in16.5 mm
02:45 PM 71.3°F21.8°C 71.3°F21.8°C 100% 1.7 mph NNE2.7 kmh NNE 4.4 mph7.1 kmh 29.90 in1012.5 mb 0.00 in0.0 mm 0.00 in/hr0.0 mm/hr 0.65 in16.5 mm
02:40 PM 70.5°F21.4°C 70.5°F21.4°C 100% 1.8 mph NNE2.9 kmh NNE 3.5 mph5.6 kmh 29.90 in1012.5 mb 0.00 in0.0 mm 0.00 in/hr0.0 mm/hr 0.65 in16.5 mm
02:35 PM 69.9°F21.1°C 69.9°F21.1°C 100% 1.0 mph SE1.6 kmh SE 2.2 mph3.5 kmh 29.90 in1012.5 mb 0.00 in0.0 mm 0.00 in/hr0.0 mm/hr 0.65 in16.5 mm
02:30 PM 69.5°F20.8°C 69.5°F20.8°C 100% 1.9 mph ENE3.1 kmh ENE 4.2 mph6.8 kmh 29.90 in1012.5 mb 0.00 in0.0 mm 0.00 in/hr0.0 mm/hr 0.65 in16.5 mm
02:25 PM 69.3°F20.7°C 69.3°F20.7°C 100% 1.2 mph ENE1.9 kmh ENE 4.0 mph6.4 kmh 29.90 in1012.5 mb 0.00 in0.0 mm 0.00 in/hr0.0 mm/hr 0.65 in16.5 mm
02:20 PM 68.6°F20.3°C 68.6°F20.3°C 100% 3.2 mph NE5.1 kmh NE 4.9 mph7.9 kmh 29.90 in1012.5 mb 0.00 in0.0 mm 0.00 in/hr0.0 mm/hr 0.65 in16.5 mm
02:15 PM 67.0°F19.4°C 67.0°F19.4°C 100% 2.0 mph NE3.2 kmh NE 4.2 mph6.8 kmh 29.91 in1012.9 mb 0.00 in0.0 mm 0.00 in/hr0.0 mm/hr 0.65 in16.5 mm
02:10 PM 66.1°F18.9°C 66.1°F18.9°C 100% 2.5 mph E4.0 kmh E 4.9 mph7.9 kmh 29.91 in1012.9 mb 0.00 in0.0 mm 0.00 in/hr0.0 mm/hr 0.65 in16.5 mm
02:05 PM 65.7°F18.7°C 65.7°F18.7°C 100% 1.3 mph ESE2.1 kmh ESE 3.2 mph5.1 kmh 29.91 in1012.9 mb 0.00 in0.0 mm 0.00 in/hr0.0 mm/hr 0.65 in16.5 mm
02:00 PM 64.8°F18.2°C 64.8°F18.2°C 100% 1.1 mph NNE1.8 kmh NNE 2.7 mph4.3 kmh 29.91 in1012.9 mb 0.00 in0.0 mm 0.00 in/hr0.0 mm/hr 0.65 in16.5 mm
01:55 PM 64.3°F17.9°C 64.3°F17.9°C 100% 1.8 mph NNE2.9 kmh NNE 3.7 mph6.0 kmh 29.91 in1012.9 mb 0.00 in0.0 mm 0.00 in/hr0.0 mm/hr 0.65 in16.5 mm
01:50 PM 64.4°F18.0°C 64.4°F18.0°C 100% 1.4 mph ENE2.3 kmh ENE 3.0 mph4.8 kmh 29.91 in1012.9 mb 0.00 in0.0 mm 0.00 in/hr0.0 mm/hr 0.65 in16.5 mm
01:45 PM 64.4°F18.0°C 64.4°F18.0°C 100% 1.3 mph ENE2.1 kmh ENE 3.0 mph4.8 kmh 29.92 in1013.2 mb 0.00 in0.0 mm 0.00 in/hr0.0 mm/hr 0.65 in16.5 mm
01:40 PM 64.1°F17.8°C 64.1°F17.8°C 100% 0.8 mph NE1.3 kmh NE 2.6 mph4.2 kmh 29.92 in1013.2 mb 0.00 in0.0 mm 0.00 in/hr0.0 mm/hr 0.65 in16.5 mm
01:35 PM 63.7°F17.6°C 63.7°F17.6°C 100% 0.5 mph NNE0.8 kmh NNE 3.5 mph5.6 kmh 29.92 in1013.2 mb 0.00 in0.0 mm 0.00 in/hr0.0 mm/hr 0.65 in16.5 mm
01:30 PM 63.5°F17.5°C 63.5°F17.5°C 100% 1.1 mph ENE1.8 kmh ENE 2.7 mph4.3 kmh 29.92 in1013.2 mb 0.00 in0.0 mm 0.00 in/hr0.0 mm/hr 0.65 in16.5 mm
01:25 PM 63.2°F17.3°C 63.2°F17.3°C 100% 1.3 mph NNE2.1 kmh NNE 2.2 mph3.5 kmh 29.92 in1013.2 mb 0.00 in0.0 mm 0.00 in/hr0.0 mm/hr 0.65 in16.5 mm
01:20 PM 62.7°F17.1°C 62.7°F17.1°C 100% 1.4 mph ENE2.3 kmh ENE 3.0 mph4.8 kmh 29.92 in1013.2 mb 0.00 in0.0 mm 0.00 in/hr0.0 mm/hr 0.65 in16.5 mm
01:15 PM 62.9°F17.2°C 62.9°F17.2°C 100% 1.7 mph ENE2.7 kmh ENE 3.2 mph5.1 kmh 29.92 in1013.2 mb 0.00 in0.0 mm 0.00 in/hr0.0 mm/hr 0.65 in16.5 mm
01:10 PM 63.0°F17.2°C 63.0°F17.2°C 100% 1.5 mph NE2.4 kmh NE 3.0 mph4.8 kmh 29.92 in1013.2 mb 0.00 in0.0 mm 0.00 in/hr0.0 mm/hr 0.65 in16.5 mm
01:05 PM 63.0°F17.2°C 63.0°F17.2°C 100% 2.7 mph NNE4.3 kmh NNE 5.5 mph8.9 kmh 29.92 in1013.2 mb 0.00 in0.0 mm 0.00 in/hr0.0 mm/hr 0.65 in16.5 mm
01:00 PM 63.0°F17.2°C 63.0°F17.2°C 100% 1.9 mph NNE3.1 kmh NNE 4.2 mph6.8 kmh 29.92 in1013.2 mb 0.00 in0.0 mm 0.00 in/hr0.0 mm/hr 0.65 in16.5 mm
12:55 PM 62.7°F17.1°C 62.7°F17.1°C 100% 1.8 mph N2.9 kmh N 3.5 mph5.6 kmh 29.92 in1013.2 mb 0.00 in0.0 mm 0.00 in/hr0.0 mm/hr 0.65 in16.5 mm
12:50 PM 62.3°F16.8°C 62.3°F16.8°C 100% 0.8 mph N1.3 kmh N 3.7 mph6.0 kmh 29.92 in1013.2 mb 0.00 in0.0 mm 0.00 in/hr0.0 mm/hr 0.65 in16.5 mm
12:45 PM 61.7°F16.5°C 61.7°F16.5°C 100% 2.6 mph N4.2 kmh N 6.0 mph9.7 kmh 29.92 in1013.2 mb 0.00 in0.0 mm 0.00 in/hr0.0 mm/hr 0.65 in16.5 mm
12:40 PM 61.6°F16.4°C 61.3°F16.3°C 99% 2.1 mph NE3.4 kmh NE 4.9 mph7.9 kmh 29.92 in1013.2 mb 0.00 in0.0 mm 0.00 in/hr0.0 mm/hr 0.65 in16.5 mm
12:35 PM 61.2°F16.2°C 60.8°F16.0°C 99% 2.1 mph NNE3.4 kmh NNE 5.0 mph8.0 kmh 29.92 in1013.2 mb 0.00 in0.0 mm 0.00 in/hr0.0 mm/hr 0.65 in16.5 mm
12:30 PM 60.8°F16.0°C 60.8°F16.0°C 100% 2.7 mph NNW4.3 kmh NNW 4.2 mph6.8 kmh 29.92 in1013.2 mb 0.00 in0.0 mm 0.00 in/hr0.0 mm/hr 0.65 in16.5 mm
12:25 PM 60.6°F15.9°C 60.6°F15.9°C 100% 2.5 mph NNE4.0 kmh NNE 4.4 mph7.1 kmh 29.92 in1013.2 mb 0.00 in0.0 mm 0.00 in/hr0.0 mm/hr 0.65 in16.5 mm
12:20 PM 60.3°F15.7°C 60.3°F15.7°C 100% 3.2 mph NNW5.1 kmh NNW 5.0 mph8.0 kmh 29.92 in1013.2 mb 0.00 in0.0 mm 0.00 in/hr0.0 mm/hr 0.65 in16.5 mm
12:15 PM 60.1°F15.6°C 60.1°F15.6°C 100% 3.1 mph N5.0 kmh N 5.4 mph8.7 kmh 29.92 in1013.2 mb 0.00 in0.0 mm 0.00 in/hr0.0 mm/hr 0.64 in16.3 mm
12:10 PM 60.0°F15.6°C 60.0°F15.6°C 100% 2.5 mph NNE4.0 kmh NNE 4.4 mph7.1 kmh 29.92 in1013.2 mb 0.00 in0.0 mm 0.00 in/hr0.0 mm/hr 0.64 in16.3 mm
12:05 PM 59.8°F15.4°C 59.8°F15.4°C 100% 0.2 mph NNE0.3 kmh NNE 1.8 mph2.9 kmh 29.91 in1012.9 mb 0.00 in0.0 mm 0.00 in/hr0.0 mm/hr 0.63 in16.0 mm
12:00 PM 59.7°F15.4°C 59.7°F15.4°C 100% 2.2 mph NNE3.5 kmh NNE 4.0 mph6.4 kmh 29.92 in1013.2 mb 0.00 in0.0 mm 0.00 in/hr0.0 mm/hr 0.62 in15.7 mm
11:55 AM 59.6°F15.3°C 59.6°F15.3°C 100% 2.7 mph N4.3 kmh N 5.0 mph8.0 kmh 29.92 in1013.2 mb 0.00 in0.0 mm 0.00 in/hr0.0 mm/hr 0.61 in15.5 mm
11:50 AM 59.5°F15.3°C 59.5°F15.3°C 100% 1.8 mph NNE2.9 kmh NNE 4.0 mph6.4 kmh 29.91 in1012.9 mb 0.00 in0.0 mm 0.00 in/hr0.0 mm/hr 0.61 in15.5 mm
11:45 AM 59.4°F15.2°C 59.4°F15.2°C 100% 1.9 mph NNE3.1 kmh NNE 4.0 mph6.4 kmh 29.91 in1012.9 mb 0.00 in0.0 mm 0.00 in/hr0.0 mm/hr 0.60 in15.2 mm
11:40 AM 59.2°F15.1°C 59.2°F15.1°C 100% 2.9 mph NE4.7 kmh NE 4.9 mph7.9 kmh 29.91 in1012.9 mb 0.00 in0.0 mm 0.00 in/hr0.0 mm/hr 0.59 in15.0 mm
11:35 AM 59.0°F15.0°C 59.0°F15.0°C 100% 3.4 mph NNW5.5 kmh NNW 5.0 mph8.0 kmh 29.91 in1012.9 mb 0.00 in0.0 mm 0.00 in/hr0.0 mm/hr 0.59 in15.0 mm
11:30 AM 58.7°F14.8°C 58.7°F14.8°C 100% 3.1 mph N5.0 kmh N 5.7 mph9.2 kmh 29.90 in1012.5 mb 0.00 in0.0 mm 0.00 in/hr0.0 mm/hr 0.59 in15.0 mm
11:25 AM 58.6°F14.8°C 58.6°F14.8°C 100% 3.0 mph N4.8 kmh N 5.5 mph8.9 kmh 29.90 in1012.5 mb 0.00 in0.0 mm 0.00 in/hr0.0 mm/hr 0.59 in15.0 mm
11:20 AM 58.3°F14.6°C 58.3°F14.6°C 100% 3.8 mph N6.1 kmh N 5.5 mph8.9 kmh 29.90 in1012.5 mb 0.00 in0.0 mm 0.00 in/hr0.0 mm/hr 0.59 in15.0 mm
11:15 AM 58.1°F14.5°C 58.1°F14.5°C 100% 5.3 mph N8.5 kmh N 9.0 mph14.5 kmh 29.90 in1012.5 mb 0.00 in0.0 mm 0.00 in/hr0.0 mm/hr 0.59 in15.0 mm
11:10 AM 58.1°F14.5°C 58.1°F14.5°C 100% 4.2 mph N6.8 kmh N 8.9 mph14.3 kmh 29.90 in1012.5 mb 0.00 in0.0 mm 0.00 in/hr0.0 mm/hr 0.59 in15.0 mm
11:05 AM 58.1°F14.5°C 58.1°F14.5°C 100% 4.8 mph NNE7.7 kmh NNE 7.9 mph12.7 kmh 29.91 in1012.9 mb 0.00 in0.0 mm 0.00 in/hr0.0 mm/hr 0.58 in14.7 mm
11:00 AM 58.1°F14.5°C 58.1°F14.5°C 100% 4.2 mph N6.8 kmh N 7.0 mph11.3 kmh 29.91 in1012.9 mb 0.00 in0.0 mm 0.00 in/hr0.0 mm/hr 0.57 in14.5 mm
10:55 AM 58.1°F14.5°C 58.1°F14.5°C 100% 4.2 mph NNE6.8 kmh NNE 7.5 mph12.1 kmh 29.91 in1012.9 mb 0.00 in0.0 mm 0.00 in/hr0.0 mm/hr 0.57 in14.5 mm
10:50 AM 58.2°F14.6°C 58.2°F14.6°C 100% 4.3 mph N6.9 kmh N 8.1 mph13.0 kmh 29.91 in1012.9 mb 0.00 in0.0 mm 0.00 in/hr0.0 mm/hr 0.56 in14.2 mm
10:45 AM 58.3°F14.6°C 58.3°F14.6°C 100% 4.6 mph N7.4 kmh N 8.5 mph13.7 kmh 29.91 in1012.9 mb 0.00 in0.0 mm 0.00 in/hr0.0 mm/hr 0.55 in14.0 mm
10:40 AM 58.5°F14.7°C 58.5°F14.7°C 100% 4.6 mph NNE7.4 kmh NNE 7.9 mph12.7 kmh 29.91 in1012.9 mb 0.00 in0.0 mm 0.00 in/hr0.0 mm/hr 0.51 in13.0 mm
10:35 AM 58.7°F14.8°C 58.7°F14.8°C 100% 5.4 mph N8.7 kmh N 10.0 mph16.1 kmh 29.91 in1012.9 mb 0.00 in0.0 mm 0.00 in/hr0.0 mm/hr 0.49 in12.4 mm
10:30 AM 58.7°F14.8°C 58.7°F14.8°C 100% 4.7 mph N7.6 kmh N 8.5 mph13.7 kmh 29.91 in1012.9 mb 0.00 in0.0 mm 0.00 in/hr0.0 mm/hr 0.47 in11.9 mm
10:25 AM 58.8°F14.9°C 58.8°F14.9°C 100% 4.9 mph NNE7.9 kmh NNE 8.1 mph13.0 kmh 29.91 in1012.9 mb 0.00 in0.0 mm 0.00 in/hr0.0 mm/hr 0.44 in11.2 mm
10:20 AM 58.9°F14.9°C 58.9°F14.9°C 100% 3.7 mph N6.0 kmh N 7.5 mph12.1 kmh 29.91 in1012.9 mb 0.00 in0.0 mm 0.00 in/hr0.0 mm/hr 0.42 in10.7 mm
10:15 AM 58.9°F14.9°C 58.9°F14.9°C 100% 4.7 mph N7.6 kmh N 9.5 mph15.3 kmh 29.91 in1012.9 mb 0.00 in0.0 mm 0.00 in/hr0.0 mm/hr 0.41 in10.4 mm
10:10 AM 59.0°F15.0°C 59.0°F15.0°C 100% 3.9 mph NNW6.3 kmh NNW 7.5 mph12.1 kmh 29.90 in1012.5 mb 0.00 in0.0 mm 0.00 in/hr0.0 mm/hr 0.39 in9.9 mm
10:05 AM 59.1°F15.1°C 59.1°F15.1°C 100% 4.8 mph N7.7 kmh N 8.5 mph13.7 kmh 29.90 in1012.5 mb 0.00 in0.0 mm 0.00 in/hr0.0 mm/hr 0.35 in8.9 mm
10:00 AM 59.2°F15.1°C 59.2°F15.1°C 100% 4.4 mph N7.1 kmh N 11.0 mph17.7 kmh 29.90 in1012.5 mb 0.00 in0.0 mm 0.00 in/hr0.0 mm/hr 0.33 in8.4 mm
09:55 AM 59.2°F15.1°C 59.2°F15.1°C 100% 4.0 mph N6.4 kmh N 7.7 mph12.4 kmh 29.90 in1012.5 mb 0.00 in0.0 mm 0.00 in/hr0.0 mm/hr 0.31 in7.9 mm
09:50 AM 59.2°F15.1°C 59.2°F15.1°C 100% 4.7 mph N7.6 kmh N 7.7 mph12.4 kmh 29.91 in1012.9 mb 0.00 in0.0 mm 0.00 in/hr0.0 mm/hr 0.29 in7.4 mm
09:45 AM 59.4°F15.2°C 59.4°F15.2°C 100% 3.9 mph NNE6.3 kmh NNE 7.0 mph11.3 kmh 29.91 in1012.9 mb 0.00 in0.0 mm 0.00 in/hr0.0 mm/hr 0.26 in6.6 mm
09:40 AM 59.5°F15.3°C 59.5°F15.3°C 100% 3.9 mph NNE6.3 kmh NNE 7.5 mph12.1 kmh 29.91 in1012.9 mb 0.00 in0.0 mm 0.00 in/hr0.0 mm/hr 0.23 in5.8 mm
09:35 AM 59.6°F15.3°C 59.6°F15.3°C 100% 4.6 mph N7.4 kmh N 7.0 mph11.3 kmh 29.91 in1012.9 mb 0.00 in0.0 mm 0.00 in/hr0.0 mm/hr 0.19 in4.8 mm
09:30 AM 59.7°F15.4°C 59.7°F15.4°C 100% 4.5 mph NNE7.2 kmh NNE 10.3 mph16.6 kmh 29.91 in1012.9 mb 0.00 in0.0 mm 0.00 in/hr0.0 mm/hr 0.19 in4.8 mm
09:25 AM 60.0°F15.6°C 60.0°F15.6°C 100% 5.9 mph N9.5 kmh N 11.4 mph18.3 kmh 29.91 in1012.9 mb 0.00 in0.0 mm 0.00 in/hr0.0 mm/hr 0.18 in4.6 mm
09:20 AM 60.2°F15.7°C 60.2°F15.7°C 100% 5.8 mph N9.3 kmh N 10.5 mph16.9 kmh 29.91 in1012.9 mb 0.00 in0.0 mm 0.00 in/hr0.0 mm/hr 0.18 in4.6 mm
09:15 AM 60.5°F15.8°C 60.5°F15.8°C 100% 4.6 mph N7.4 kmh N 9.8 mph15.8 kmh 29.91 in1012.9 mb 0.00 in0.0 mm 0.00 in/hr0.0 mm/hr 0.18 in4.6 mm
09:10 AM 60.7°F15.9°C 60.7°F15.9°C 100% 5.5 mph N8.9 kmh N 11.0 mph17.7 kmh 29.91 in1012.9 mb 0.00 in0.0 mm 0.00 in/hr0.0 mm/hr 0.18 in4.6 mm
09:05 AM 60.7°F15.9°C 60.7°F15.9°C 100% 5.5 mph NNE8.9 kmh NNE 10.0 mph16.1 kmh 29.90 in1012.5 mb 0.00 in0.0 mm 0.00 in/hr0.0 mm/hr 0.18 in4.6 mm
09:00 AM 60.7°F15.9°C 60.7°F15.9°C 100% 4.5 mph NNE7.2 kmh NNE 7.9 mph12.7 kmh 29.90 in1012.5 mb 0.00 in0.0 mm 0.00 in/hr0.0 mm/hr 0.18 in4.6 mm
08:55 AM 60.7°F15.9°C 60.7°F15.9°C 100% 4.5 mph NNE7.2 kmh NNE 7.9 mph12.7 kmh 29.90 in1012.5 mb 0.00 in0.0 mm 0.00 in/hr0.0 mm/hr 0.18 in4.6 mm
08:50 AM 60.9°F16.1°C 60.9°F16.1°C 100% 4.8 mph NNE7.7 kmh NNE 9.3 mph15.0 kmh 29.89 in1012.2 mb 0.00 in0.0 mm 0.00 in/hr0.0 mm/hr 0.18 in4.6 mm
08:45 AM 61.4°F16.3°C 61.4°F16.3°C 100% 7.3 mph N11.7 kmh N 13.5 mph21.7 kmh 29.89 in1012.2 mb 0.00 in0.0 mm 0.00 in/hr0.0 mm/hr 0.18 in4.6 mm
08:40 AM 61.8°F16.6°C 61.8°F16.6°C 100% 6.3 mph NE10.1 kmh NE 12.0 mph19.3 kmh 29.89 in1012.2 mb 0.00 in0.0 mm 0.00 in/hr0.0 mm/hr 0.17 in4.3 mm
08:35 AM 62.1°F16.7°C 62.1°F16.7°C 100% 6.2 mph N10.0 kmh N 10.5 mph16.9 kmh 29.89 in1012.2 mb 0.00 in0.0 mm 0.00 in/hr0.0 mm/hr 0.17 in4.3 mm
08:30 AM 62.1°F16.7°C 62.1°F16.7°C 100% 5.8 mph N9.3 kmh N 9.8 mph15.8 kmh 29.89 in1012.2 mb 0.00 in0.0 mm 0.00 in/hr0.0 mm/hr 0.17 in4.3 mm
08:25 AM 62.2°F16.8°C 62.2°F16.8°C 100% 4.2 mph N6.8 kmh N 7.2 mph11.6 kmh 29.89 in1012.2 mb 0.00 in0.0 mm 0.00 in/hr0.0 mm/hr 0.17 in4.3 mm
08:20 AM 62.5°F16.9°C 62.5°F16.9°C 100% 5.5 mph NNE8.9 kmh NNE 9.8 mph15.8 kmh 29.89 in1012.2 mb 0.00 in0.0 mm 0.00 in/hr0.0 mm/hr 0.16 in4.1 mm
08:15 AM 62.6°F17.0°C 62.6°F17.0°C 100% 4.8 mph N7.7 kmh N 9.5 mph15.3 kmh 29.89 in1012.2 mb 0.00 in0.0 mm 0.00 in/hr0.0 mm/hr 0.16 in4.1 mm
08:10 AM 62.6°F17.0°C 62.6°F17.0°C 100% 3.8 mph N6.1 kmh N 9.0 mph14.5 kmh 29.89 in1012.2 mb 0.00 in0.0 mm 0.00 in/hr0.0 mm/hr 0.16 in4.1 mm
08:05 AM 62.7°F17.1°C 62.7°F17.1°C 100% 4.0 mph N6.4 kmh N 8.9 mph14.3 kmh 29.89 in1012.2 mb 0.00 in0.0 mm 0.00 in/hr0.0 mm/hr 0.15 in3.8 mm
08:00 AM 62.7°F17.1°C 62.7°F17.1°C 100% 4.3 mph NE6.9 kmh NE 7.2 mph11.6 kmh 29.89 in1012.2 mb 0.00 in0.0 mm 0.00 in/hr0.0 mm/hr 0.15 in3.8 mm
07:55 AM 62.7°F17.1°C 62.7°F17.1°C 100% 4.5 mph N7.2 kmh N 7.9 mph12.7 kmh 29.89 in1012.2 mb 0.00 in0.0 mm 0.00 in/hr0.0 mm/hr 0.15 in3.8 mm
07:50 AM 62.7°F17.1°C 62.7°F17.1°C 100% 5.5 mph N8.9 kmh N 9.3 mph15.0 kmh 29.88 in1011.9 mb 0.00 in0.0 mm 0.00 in/hr0.0 mm/hr 0.15 in3.8 mm
07:45 AM 62.8°F17.1°C 62.8°F17.1°C 100% 3.9 mph NNE6.3 kmh NNE 7.0 mph11.3 kmh 29.88 in1011.9 mb 0.00 in0.0 mm 0.00 in/hr0.0 mm/hr 0.14 in3.6 mm
07:40 AM 63.0°F17.2°C 63.0°F17.2°C 100% 4.9 mph N7.9 kmh N 9.0 mph14.5 kmh 29.88 in1011.9 mb 0.00 in0.0 mm 0.00 in/hr0.0 mm/hr 0.12 in3.0 mm
07:35 AM 63.2°F17.3°C 63.2°F17.3°C 100% 4.9 mph N7.9 kmh N 9.5 mph15.3 kmh 29.88 in1011.9 mb 0.00 in0.0 mm 0.00 in/hr0.0 mm/hr 0.11 in2.8 mm
07:30 AM 63.3°F17.4°C 63.3°F17.4°C 100% 4.9 mph NNE7.9 kmh NNE 10.6 mph17.1 kmh 29.89 in1012.2 mb 0.00 in0.0 mm 0.00 in/hr0.0 mm/hr 0.10 in2.5 mm
07:25 AM 63.4°F17.4°C 63.4°F17.4°C 100% 4.6 mph N7.4 kmh N 8.9 mph14.3 kmh 29.89 in1012.2 mb 0.00 in0.0 mm 0.00 in/hr0.0 mm/hr 0.09 in2.3 mm
07:20 AM 63.6°F17.6°C 63.6°F17.6°C 100% 5.3 mph N8.5 kmh N 10.3 mph16.6 kmh 29.89 in1012.2 mb 0.00 in0.0 mm 0.00 in/hr0.0 mm/hr 0.09 in2.3 mm
07:15 AM 63.7°F17.6°C 63.7°F17.6°C 100% 5.7 mph N9.2 kmh N 11.4 mph18.3 kmh 29.88 in1011.9 mb 0.00 in0.0 mm 0.00 in/hr0.0 mm/hr 0.09 in2.3 mm
07:10 AM 63.9°F17.7°C 63.9°F17.7°C 100% 6.3 mph N10.1 kmh N 10.6 mph17.1 kmh 29.88 in1011.9 mb 0.00 in0.0 mm 0.00 in/hr0.0 mm/hr 0.09 in2.3 mm
07:05 AM 64.0°F17.8°C 64.0°F17.8°C 100% 5.0 mph NNE8.0 kmh NNE 9.3 mph15.0 kmh 29.88 in1011.9 mb 0.00 in0.0 mm 0.00 in/hr0.0 mm/hr 0.09 in2.3 mm
07:00 AM 64.0°F17.8°C 64.0°F17.8°C 100% 4.9 mph N7.9 kmh N 9.5 mph15.3 kmh 29.88 in1011.9 mb 0.00 in0.0 mm 0.00 in/hr0.0 mm/hr 0.09 in2.3 mm
06:55 AM 64.0°F17.8°C 64.0°F17.8°C 100% 4.0 mph N6.4 kmh N 8.5 mph13.7 kmh 29.87 in1011.5 mb 0.00 in0.0 mm 0.00 in/hr0.0 mm/hr 0.09 in2.3 mm
06:50 AM 64.0°F17.8°C 64.0°F17.8°C 100% 3.9 mph N6.3 kmh N 8.5 mph13.7 kmh 29.87 in1011.5 mb 0.00 in0.0 mm 0.00 in/hr0.0 mm/hr 0.09 in2.3 mm
06:45 AM 64.2°F17.9°C 64.2°F17.9°C 100% 4.9 mph NNE7.9 kmh NNE 8.4 mph13.5 kmh 29.87 in1011.5 mb 0.00 in0.0 mm 0.00 in/hr0.0 mm/hr 0.09 in2.3 mm
06:40 AM 64.0°F17.8°C 64.0°F17.8°C 100% 5.1 mph N8.2 kmh N 10.0 mph16.1 kmh 29.86 in1011.2 mb 0.00 in0.0 mm 0.00 in/hr0.0 mm/hr 0.09 in2.3 mm
06:35 AM 64.1°F17.8°C 64.1°F17.8°C 100% 5.8 mph N9.3 kmh N 10.6 mph17.1 kmh 29.87 in1011.5 mb 0.00 in0.0 mm 0.00 in/hr0.0 mm/hr 0.09 in2.3 mm
06:30 AM 64.4°F18.0°C 64.4°F18.0°C 100% 4.5 mph NNE7.2 kmh NNE 9.8 mph15.8 kmh 29.87 in1011.5 mb 0.00 in0.0 mm 0.00 in/hr0.0 mm/hr 0.09 in2.3 mm
06:25 AM 64.5°F18.1°C 64.5°F18.1°C 100% 4.4 mph NNE7.1 kmh NNE 10.5 mph16.9 kmh 29.87 in1011.5 mb 0.00 in0.0 mm 0.00 in/hr0.0 mm/hr 0.09 in2.3 mm
06:20 AM 64.7°F18.2°C 64.7°F18.2°C 100% 4.4 mph N7.1 kmh N 8.5 mph13.7 kmh 29.87 in1011.5 mb 0.00 in0.0 mm 0.00 in/hr0.0 mm/hr 0.09 in2.3 mm
06:15 AM 65.0°F18.3°C 65.0°F18.3°C 100% 4.8 mph N7.7 kmh N 7.5 mph12.1 kmh 29.86 in1011.2 mb 0.00 in0.0 mm 0.00 in/hr0.0 mm/hr 0.09 in2.3 mm
06:10 AM 65.1°F18.4°C 65.1°F18.4°C 100% 4.6 mph NNW7.4 kmh NNW 8.9 mph14.3 kmh 29.86 in1011.2 mb 0.00 in0.0 mm 0.00 in/hr0.0 mm/hr 0.09 in2.3 mm
06:05 AM 65.2°F18.4°C 65.2°F18.4°C 100% 4.6 mph N7.4 kmh N 8.1 mph13.0 kmh 29.86 in1011.2 mb 0.00 in0.0 mm 0.00 in/hr0.0 mm/hr 0.09 in2.3 mm
06:00 AM 65.4°F18.6°C 65.4°F18.6°C 100% 3.3 mph NNE5.3 kmh NNE 5.5 mph8.9 kmh 29.86 in1011.2 mb 0.00 in0.0 mm 0.00 in/hr0.0 mm/hr 0.09 in2.3 mm
05:55 AM 65.4°F18.6°C 65.4°F18.6°C 100% 3.9 mph NNE6.3 kmh NNE 7.7 mph12.4 kmh 29.85 in1010.8 mb 0.00 in0.0 mm 0.00 in/hr0.0 mm/hr 0.09 in2.3 mm
05:50 AM 65.4°F18.6°C 65.4°F18.6°C 100% 3.4 mph NNE5.5 kmh NNE 7.0 mph11.3 kmh 29.85 in1010.8 mb 0.00 in0.0 mm 0.00 in/hr0.0 mm/hr 0.09 in2.3 mm
05:45 AM 65.4°F18.6°C 65.4°F18.6°C 100% 3.3 mph N5.3 kmh N 6.2 mph10.0 kmh 29.85 in1010.8 mb 0.00 in0.0 mm 0.00 in/hr0.0 mm/hr 0.09 in2.3 mm
05:40 AM 65.4°F18.6°C 65.4°F18.6°C 100% 3.3 mph N5.3 kmh N 5.7 mph9.2 kmh 29.84 in1010.5 mb 0.00 in0.0 mm 0.00 in/hr0.0 mm/hr 0.09 in2.3 mm
05:35 AM 65.4°F18.6°C 65.4°F18.6°C 100% 5.1 mph NNE8.2 kmh NNE 9.8 mph15.8 kmh 29.85 in1010.8 mb 0.00 in0.0 mm 0.00 in/hr0.0 mm/hr 0.08 in2.0 mm
05:30 AM 65.5°F18.6°C 65.5°F18.6°C 100% 4.7 mph NNE7.6 kmh NNE 9.0 mph14.5 kmh 29.85 in1010.8 mb 0.00 in0.0 mm 0.00 in/hr0.0 mm/hr 0.08 in2.0 mm
05:25 AM 65.7°F18.7°C 65.7°F18.7°C 100% 4.4 mph N7.1 kmh N 8.5 mph13.7 kmh 29.84 in1010.5 mb 0.00 in0.0 mm 0.00 in/hr0.0 mm/hr 0.08 in2.0 mm
05:20 AM 66.0°F18.9°C 66.0°F18.9°C 100% 6.1 mph N9.8 kmh N 11.9 mph19.2 kmh 29.84 in1010.5 mb 0.00 in0.0 mm 0.00 in/hr0.0 mm/hr 0.08 in2.0 mm
05:15 AM 66.2°F19.0°C 66.2°F19.0°C 100% 4.6 mph N7.4 kmh N 8.4 mph13.5 kmh 29.84 in1010.5 mb 0.00 in0.0 mm 0.00 in/hr0.0 mm/hr 0.08 in2.0 mm
05:10 AM 66.5°F19.2°C 66.5°F19.2°C 100% 5.0 mph N8.0 kmh N 9.3 mph15.0 kmh 29.84 in1010.5 mb 0.00 in0.0 mm 0.00 in/hr0.0 mm/hr 0.08 in2.0 mm
05:05 AM 66.8°F19.3°C 66.8°F19.3°C 100% 4.5 mph N7.2 kmh N 8.5 mph13.7 kmh 29.83 in1010.2 mb 0.00 in0.0 mm 0.00 in/hr0.0 mm/hr 0.08 in2.0 mm
05:00 AM 67.0°F19.4°C 67.0°F19.4°C 100% 4.4 mph N7.1 kmh N 9.3 mph15.0 kmh 29.83 in1010.2 mb 0.00 in0.0 mm 0.00 in/hr0.0 mm/hr 0.08 in2.0 mm
04:55 AM 67.2°F19.6°C 67.2°F19.6°C 100% 4.7 mph N7.6 kmh N 8.9 mph14.3 kmh 29.83 in1010.2 mb 0.00 in0.0 mm 0.00 in/hr0.0 mm/hr 0.08 in2.0 mm
04:50 AM 67.2°F19.6°C 67.2°F19.6°C 100% 3.3 mph N5.3 kmh N 6.2 mph10.0 kmh 29.83 in1010.2 mb 0.00 in0.0 mm 0.00 in/hr0.0 mm/hr 0.08 in2.0 mm
04:45 AM 67.0°F19.4°C 67.0°F19.4°C 100% 4.9 mph N7.9 kmh N 9.8 mph15.8 kmh 29.83 in1010.2 mb 0.00 in0.0 mm 0.00 in/hr0.0 mm/hr 0.08 in2.0 mm
04:40 AM 67.0°F19.4°C 67.0°F19.4°C 100% Calm Calm -- 29.83 in1010.2 mb 0.00 in0.0 mm 0.00 in/hr0.0 mm/hr 0.08 in2.0 mm
04:35 AM 67.1°F19.5°C 67.1°F19.5°C 100% Calm Calm -- 29.82 in1009.8 mb 0.00 in0.0 mm 0.00 in/hr0.0 mm/hr 0.08 in2.0 mm
04:30 AM 67.2°F19.6°C 67.2°F19.6°C 100% Calm Calm -- 29.82 in1009.8 mb 0.00 in0.0 mm 0.00 in/hr0.0 mm/hr 0.08 in2.0 mm
04:25 AM 67.0°F19.4°C 67.0°F19.4°C 100% Calm Calm -- 29.82 in1009.8 mb 0.00 in0.0 mm 0.00 in/hr0.0 mm/hr 0.07 in1.8 mm
04:20 AM 67.0°F19.4°C 67.0°F19.4°C 100% Calm Calm -- 29.82 in1009.8 mb 0.00 in0.0 mm 0.00 in/hr0.0 mm/hr 0.07 in1.8 mm
04:15 AM 67.0°F19.4°C 67.0°F19.4°C 100% Calm Calm -- 29.82 in1009.8 mb 0.00 in0.0 mm 0.00 in/hr0.0 mm/hr 0.07 in1.8 mm
04:10 AM 66.9°F19.4°C 66.9°F19.4°C 100% Calm Calm -- 29.82 in1009.8 mb 0.00 in0.0 mm 0.00 in/hr0.0 mm/hr 0.07 in1.8 mm
04:05 AM 66.7°F19.3°C 66.7°F19.3°C 100% Calm Calm -- 29.82 in1009.8 mb 0.00 in0.0 mm 0.00 in/hr0.0 mm/hr 0.07 in1.8 mm
04:00 AM 66.6°F19.2°C 66.6°F19.2°C 100% Calm Calm -- 29.82 in1009.8 mb 0.00 in0.0 mm 0.00 in/hr0.0 mm/hr 0.07 in1.8 mm
03:55 AM 66.5°F19.2°C 66.5°F19.2°C 100% Calm Calm -- 29.81 in1009.5 mb 0.00 in0.0 mm 0.00 in/hr0.0 mm/hr 0.07 in1.8 mm
03:50 AM 66.5°F19.2°C 66.5°F19.2°C 100% Calm Calm 1.1 mph1.8 kmh 29.81 in1009.5 mb 0.00 in0.0 mm 0.00 in/hr0.0 mm/hr 0.07 in1.8 mm
03:45 AM 66.6°F19.2°C 66.6°F19.2°C 100% Calm Calm -- 29.81 in1009.5 mb 0.00 in0.0 mm 0.00 in/hr0.0 mm/hr 0.07 in1.8 mm
03:40 AM 66.7°F19.3°C 66.7°F19.3°C 100% 0.9 mph SSW1.4 kmh SSW 2.1 mph3.4 kmh 29.81 in1009.5 mb 0.00 in0.0 mm 0.00 in/hr0.0 mm/hr 0.06 in1.5 mm
03:35 AM 67.0°F19.4°C 67.0°F19.4°C 100% 1.6 mph SSW2.6 kmh SSW 2.1 mph3.4 kmh 29.81 in1009.5 mb 0.00 in0.0 mm 0.00 in/hr0.0 mm/hr 0.05 in1.3 mm
03:30 AM 67.1°F19.5°C 67.1°F19.5°C 100% 2.1 mph SSW3.4 kmh SSW 3.0 mph4.8 kmh 29.81 in1009.5 mb 0.00 in0.0 mm 0.00 in/hr0.0 mm/hr 0.05 in1.3 mm
03:25 AM 67.2°F19.6°C 67.2°F19.6°C 100% 1.0 mph SSW1.6 kmh SSW 2.1 mph3.4 kmh 29.80 in1009.1 mb 0.00 in0.0 mm 0.00 in/hr0.0 mm/hr 0.05 in1.3 mm
03:20 AM 67.2°F19.6°C 67.2°F19.6°C 100% Calm Calm -- 29.80 in1009.1 mb 0.00 in0.0 mm 0.00 in/hr0.0 mm/hr 0.05 in1.3 mm
03:15 AM 67.2°F19.6°C 67.2°F19.6°C 100% Calm Calm -- 29.80 in1009.1 mb 0.00 in0.0 mm 0.00 in/hr0.0 mm/hr 0.05 in1.3 mm
03:10 AM 67.2°F19.6°C 67.2°F19.6°C 100% Calm Calm -- 29.80 in1009.1 mb 0.00 in0.0 mm 0.00 in/hr0.0 mm/hr 0.05 in1.3 mm
03:05 AM 66.9°F19.4°C 66.9°F19.4°C 100% Calm Calm -- 29.80 in1009.1 mb 0.00 in0.0 mm 0.00 in/hr0.0 mm/hr 0.05 in1.3 mm
03:00 AM 66.6°F19.2°C 66.6°F19.2°C 100% Calm Calm -- 29.80 in1009.1 mb 0.00 in0.0 mm 0.00 in/hr0.0 mm/hr 0.05 in1.3 mm
02:55 AM 66.6°F19.2°C 66.6°F19.2°C 100% 1.3 mph NNW2.1 kmh NNW 3.5 mph5.6 kmh 29.80 in1009.1 mb 0.00 in0.0 mm 0.00 in/hr0.0 mm/hr 0.05 in1.3 mm
02:50 AM 66.7°F19.3°C 66.7°F19.3°C 100% 2.1 mph NNW3.4 kmh NNW 3.0 mph4.8 kmh 29.80 in1009.1 mb 0.00 in0.0 mm 0.00 in/hr0.0 mm/hr 0.05 in1.3 mm
02:45 AM 67.0°F19.4°C 67.0°F19.4°C 100% 1.1 mph WNW1.8 kmh WNW 1.8 mph2.9 kmh 29.81 in1009.5 mb 0.00 in0.0 mm 0.00 in/hr0.0 mm/hr 0.05 in1.3 mm
02:40 AM 67.0°F19.4°C 67.0°F19.4°C 100% 0.2 mph WNW0.3 kmh WNW 2.1 mph3.4 kmh 29.80 in1009.1 mb 0.00 in0.0 mm 0.00 in/hr0.0 mm/hr 0.05 in1.3 mm
02:35 AM 67.0°F19.4°C 67.0°F19.4°C 100% 0.1 mph WNW0.2 kmh WNW 1.6 mph2.6 kmh 29.80 in1009.1 mb 0.00 in0.0 mm 0.00 in/hr0.0 mm/hr 0.05 in1.3 mm
02:30 AM 67.2°F19.6°C 67.2°F19.6°C 100% 0.6 mph WNW1.0 kmh WNW 1.8 mph2.9 kmh 29.80 in1009.1 mb 0.00 in0.0 mm 0.00 in/hr0.0 mm/hr 0.05 in1.3 mm
02:25 AM 67.2°F19.6°C 67.2°F19.6°C 100% 0.5 mph SSW0.8 kmh SSW 1.8 mph2.9 kmh 29.80 in1009.1 mb 0.00 in0.0 mm 0.00 in/hr0.0 mm/hr 0.05 in1.3 mm
02:20 AM 67.1°F19.5°C 67.1°F19.5°C 100% 1.1 mph SSW1.8 kmh SSW 2.1 mph3.4 kmh 29.80 in1009.1 mb 0.00 in0.0 mm 0.00 in/hr0.0 mm/hr 0.05 in1.3 mm
02:15 AM 67.0°F19.4°C 67.0°F19.4°C 100% Calm Calm -- 29.80 in1009.1 mb 0.00 in0.0 mm 0.00 in/hr0.0 mm/hr 0.05 in1.3 mm
02:10 AM 67.0°F19.4°C 67.0°F19.4°C 100% 0.2 mph NNW0.3 kmh NNW 1.6 mph2.6 kmh 29.80 in1009.1 mb 0.00 in0.0 mm 0.00 in/hr0.0 mm/hr 0.05 in1.3 mm
02:05 AM 67.2°F19.6°C 67.2°F19.6°C 100% 0.8 mph NNW1.3 kmh NNW 2.2 mph3.5 kmh 29.80 in1009.1 mb 0.00 in0.0 mm 0.00 in/hr0.0 mm/hr 0.05 in1.3 mm
02:00 AM 67.2°F19.6°C 67.2°F19.6°C 100% 0.4 mph ESE0.6 kmh ESE 2.6 mph4.2 kmh 29.80 in1009.1 mb 0.00 in0.0 mm 0.00 in/hr0.0 mm/hr 0.05 in1.3 mm
01:55 AM 67.2°F19.6°C 67.2°F19.6°C 100% 0.3 mph E0.5 kmh E 2.2 mph3.5 kmh 29.80 in1009.1 mb 0.00 in0.0 mm 0.00 in/hr0.0 mm/hr 0.03 in0.8 mm
01:50 AM 67.2°F19.6°C 67.2°F19.6°C 100% 0.3 mph E0.5 kmh E 2.1 mph3.4 kmh 29.81 in1009.5 mb 0.00 in0.0 mm 0.00 in/hr0.0 mm/hr 0.00 in0.0 mm
01:45 AM 67.1°F19.5°C 67.1°F19.5°C 100% Calm Calm -- 29.81 in1009.5 mb 0.00 in0.0 mm 0.00 in/hr0.0 mm/hr 0.00 in0.0 mm
01:40 AM 67.0°F19.4°C 67.0°F19.4°C 100% 1.9 mph S3.1 kmh S 2.6 mph4.2 kmh 29.82 in1009.8 mb 0.00 in0.0 mm 0.00 in/hr0.0 mm/hr 0.00 in0.0 mm
01:35 AM 66.9°F19.4°C 66.9°F19.4°C 100% Calm Calm -- 29.82 in1009.8 mb 0.00 in0.0 mm 0.00 in/hr0.0 mm/hr 0.00 in0.0 mm
01:30 AM 67.0°F19.4°C 67.0°F19.4°C 100% Calm Calm -- 29.83 in1010.2 mb 0.00 in0.0 mm 0.00 in/hr0.0 mm/hr 0.00 in0.0 mm
01:25 AM 67.2°F19.6°C 67.2°F19.6°C 100% Calm Calm -- 29.83 in1010.2 mb 0.00 in0.0 mm 0.00 in/hr0.0 mm/hr 0.00 in0.0 mm
01:20 AM 67.2°F19.6°C 67.2°F19.6°C 100% Calm Calm -- 29.83 in1010.2 mb 0.00 in0.0 mm 0.00 in/hr0.0 mm/hr 0.00 in0.0 mm
01:15 AM 67.2°F19.6°C 67.2°F19.6°C 100% Calm Calm -- 29.83 in1010.2 mb 0.00 in0.0 mm 0.00 in/hr0.0 mm/hr 0.00 in0.0 mm
01:10 AM 67.3°F19.6°C 67.3°F19.6°C 100% Calm Calm -- 29.84 in1010.5 mb 0.00 in0.0 mm 0.00 in/hr0.0 mm/hr 0.00 in0.0 mm
01:05 AM 67.5°F19.7°C 67.5°F19.7°C 100% Calm Calm -- 29.84 in1010.5 mb 0.00 in0.0 mm 0.00 in/hr0.0 mm/hr 0.00 in0.0 mm
01:00 AM 67.6°F19.8°C 67.6°F19.8°C 100% 0.0 mph SSW0.0 kmh SSW 1.1 mph1.8 kmh 29.84 in1010.5 mb 0.00 in0.0 mm 0.00 in/hr0.0 mm/hr 0.00 in0.0 mm
12:55 AM 67.5°F19.7°C 67.5°F19.7°C 100% 0.9 mph SSW1.4 kmh SSW 2.1 mph3.4 kmh 29.84 in1010.5 mb 0.00 in0.0 mm 0.00 in/hr0.0 mm/hr 0.00 in0.0 mm
12:50 AM 67.4°F19.7°C 67.4°F19.7°C 100% 2.1 mph SSW3.4 kmh SSW 2.7 mph4.3 kmh 29.84 in1010.5 mb 0.00 in0.0 mm 0.00 in/hr0.0 mm/hr 0.00 in0.0 mm
12:45 AM 67.5°F19.7°C 67.5°F19.7°C 100% Calm Calm -- 29.84 in1010.5 mb 0.00 in0.0 mm 0.00 in/hr0.0 mm/hr 0.00 in0.0 mm
12:40 AM 67.7°F19.8°C 67.7°F19.8°C 100% 0.6 mph NNW1.0 kmh NNW 1.6 mph2.6 kmh 29.84 in1010.5 mb 0.00 in0.0 mm 0.00 in/hr0.0 mm/hr 0.00 in0.0 mm
12:35 AM 67.7°F19.8°C 67.7°F19.8°C 100% 0.2 mph NNW0.3 kmh NNW 1.6 mph2.6 kmh 29.84 in1010.5 mb 0.00 in0.0 mm 0.00 in/hr0.0 mm/hr 0.00 in0.0 mm
12:30 AM 67.7°F19.8°C 67.7°F19.8°C 100% Calm Calm -- 29.84 in1010.5 mb 0.00 in0.0 mm 0.00 in/hr0.0 mm/hr 0.00 in0.0 mm
12:25 AM 67.8°F19.9°C 67.8°F19.9°C 100% 0.1 mph NNW0.2 kmh NNW 1.1 mph1.8 kmh 29.85 in1010.8 mb 0.00 in0.0 mm 0.00 in/hr0.0 mm/hr 0.00 in0.0 mm
12:20 AM 67.9°F19.9°C 67.9°F19.9°C 100% 2.3 mph NNW3.7 kmh NNW 4.0 mph6.4 kmh 29.85 in1010.8 mb 0.00 in0.0 mm 0.00 in/hr0.0 mm/hr 0.00 in0.0 mm
12:15 AM 68.0°F20.0°C 68.0°F20.0°C 100% 1.4 mph NNW2.3 kmh NNW 3.5 mph5.6 kmh 29.85 in1010.8 mb 0.00 in0.0 mm 0.00 in/hr0.0 mm/hr 0.00 in0.0 mm
12:10 AM 68.0°F20.0°C 68.0°F20.0°C 100% 0.3 mph NW0.5 kmh NW 2.1 mph3.4 kmh 29.85 in1010.8 mb 0.00 in0.0 mm 0.00 in/hr0.0 mm/hr 0.00 in0.0 mm
12:05 AM 68.0°F20.0°C 68.0°F20.0°C 100% 0.2 mph WSW0.3 kmh WSW 1.6 mph2.6 kmh 29.84 in1010.5 mb 0.00 in0.0 mm 0.00 in/hr0.0 mm/hr 0.00 in0.0 mm
12:00 AM 68.0°F20.0°C 68.0°F20.0°C 100% 0.2 mph WSW0.3 kmh WSW 1.3 mph2.1 kmh 29.84 in1010.5 mb 0.00 in0.0 mm 0.00 in/hr0.0 mm/hr 0.00 in0.0 mm
WeatherForYou.com, LLC is not responsible for any damages or problems caused by this service. Current weather conditions are obtained from the closest station including government and personal stations which may have varying degrees of accuracy. Weather forecasts are derived from the NOAA NDFD and obtained through HAMweather's Aeris Weather API. Like all things, this site belongs to Jesus Christ... He just trusts me to maintain it. If you have any questions or comments email webmaster@weatherforyou.com

Copyright © 2014, WeatherForYou.com LLC. All rights reserved.